sensor_id;sensor_type;location;lat;lon;timestamp;pressure;altitude;pressure_sealevel;temperature;humidity
10946;BME280;5525;42.648;23.368;2024-02-21T00:00:16;95360.53;;;5.52;100.00
10946;BME280;5525;42.648;23.368;2024-02-21T00:02:43;95358.63;;;5.57;100.00
10946;BME280;5525;42.648;23.368;2024-02-21T00:05:10;95359.41;;;5.63;100.00
10946;BME280;5525;42.648;23.368;2024-02-21T00:07:37;95346.31;;;5.61;100.00
10946;BME280;5525;42.648;23.368;2024-02-21T00:10:06;95344.41;;;5.57;100.00
10946;BME280;5525;42.648;23.368;2024-02-21T00:12:33;95345.47;;;5.66;100.00
10946;BME280;5525;42.648;23.368;2024-02-21T00:15:00;95351.69;;;5.56;100.00
10946;BME280;5525;42.648;23.368;2024-02-21T00:17:27;95349.50;;;5.58;100.00
10946;BME280;5525;42.648;23.368;2024-02-21T00:19:53;95349.00;;;5.56;100.00
10946;BME280;5525;42.648;23.368;2024-02-21T00:22:20;95350.34;;;5.54;100.00
10946;BME280;5525;42.648;23.368;2024-02-21T00:24:47;95339.41;;;5.45;100.00
10946;BME280;5525;42.648;23.368;2024-02-21T00:27:15;95351.16;;;5.49;100.00
10946;BME280;5525;42.648;23.368;2024-02-21T00:29:42;95333.50;;;5.43;100.00
10946;BME280;5525;42.648;23.368;2024-02-21T00:32:08;95343.19;;;5.34;100.00
10946;BME280;5525;42.648;23.368;2024-02-21T00:34:35;95340.50;;;5.44;100.00
10946;BME280;5525;42.648;23.368;2024-02-21T00:37:02;95338.38;;;5.41;100.00
10946;BME280;5525;42.648;23.368;2024-02-21T00:39:28;95339.75;;;5.29;100.00
10946;BME280;5525;42.648;23.368;2024-02-21T00:41:55;95332.28;;;5.20;100.00
10946;BME280;5525;42.648;23.368;2024-02-21T00:44:23;95333.59;;;5.23;100.00
10946;BME280;5525;42.648;23.368;2024-02-21T00:46:50;95335.78;;;5.21;100.00
10946;BME280;5525;42.648;23.368;2024-02-21T00:49:18;95333.06;;;5.26;100.00
10946;BME280;5525;42.648;23.368;2024-02-21T00:51:44;95332.56;;;5.14;100.00
10946;BME280;5525;42.648;23.368;2024-02-21T00:54:11;95330.72;;;5.14;100.00
10946;BME280;5525;42.648;23.368;2024-02-21T00:56:38;95339.53;;;5.15;100.00
10946;BME280;5525;42.648;23.368;2024-02-21T00:59:05;95330.66;;;5.24;100.00
10946;BME280;5525;42.648;23.368;2024-02-21T01:01:33;95329.34;;;5.12;100.00
10946;BME280;5525;42.648;23.368;2024-02-21T01:04:00;95330.97;;;5.13;100.00
10946;BME280;5525;42.648;23.368;2024-02-21T01:06:27;95316.50;;;5.14;100.00
10946;BME280;5525;42.648;23.368;2024-02-21T01:08:53;95315.19;;;5.11;100.00
10946;BME280;5525;42.648;23.368;2024-02-21T01:11:20;95310.91;;;5.10;100.00
10946;BME280;5525;42.648;23.368;2024-02-21T01:13:47;95309.03;;;5.11;100.00
10946;BME280;5525;42.648;23.368;2024-02-21T01:16:14;95324.00;;;5.12;100.00
10946;BME280;5525;42.648;23.368;2024-02-21T01:18:42;95319.25;;;5.04;100.00
10946;BME280;5525;42.648;23.368;2024-02-21T01:21:09;95310.66;;;5.07;100.00
10946;BME280;5525;42.648;23.368;2024-02-21T01:23:36;95313.06;;;5.13;100.00
10946;BME280;5525;42.648;23.368;2024-02-21T01:26:04;95308.19;;;5.26;100.00
10946;BME280;5525;42.648;23.368;2024-02-21T01:28:33;95298.31;;;5.11;100.00
10946;BME280;5525;42.648;23.368;2024-02-21T01:31:00;95308.53;;;5.04;100.00
10946;BME280;5525;42.648;23.368;2024-02-21T01:33:27;95300.22;;;5.05;100.00
10946;BME280;5525;42.648;23.368;2024-02-21T01:35:57;95302.09;;;5.05;100.00
10946;BME280;5525;42.648;23.368;2024-02-21T01:38:23;95304.75;;;5.10;100.00
10946;BME280;5525;42.648;23.368;2024-02-21T01:40:50;95305.84;;;5.04;100.00
10946;BME280;5525;42.648;23.368;2024-02-21T01:43:19;95294.41;;;4.83;100.00
10946;BME280;5525;42.648;23.368;2024-02-21T01:45:49;95293.31;;;4.94;100.00
10946;BME280;5525;42.648;23.368;2024-02-21T01:48:17;95285.28;;;4.94;100.00
10946;BME280;5525;42.648;23.368;2024-02-21T01:50:44;95292.75;;;4.97;100.00
10946;BME280;5525;42.648;23.368;2024-02-21T01:53:13;95296.19;;;5.08;100.00
10946;BME280;5525;42.648;23.368;2024-02-21T01:55:44;95288.91;;;5.23;100.00
10946;BME280;5525;42.648;23.368;2024-02-21T01:58:11;95288.13;;;5.18;100.00
10946;BME280;5525;42.648;23.368;2024-02-21T02:00:40;95279.22;;;5.33;100.00
10946;BME280;5525;42.648;23.368;2024-02-21T02:03:09;95270.34;;;5.37;100.00
10946;BME280;5525;42.648;23.368;2024-02-21T02:05:43;95285.13;;;5.30;100.00
10946;BME280;5525;42.648;23.368;2024-02-21T02:08:10;95277.56;;;5.42;100.00
10946;BME280;5525;42.648;23.368;2024-02-21T02:10:39;95272.72;;;5.44;100.00
10946;BME280;5525;42.648;23.368;2024-02-21T02:13:06;95270.88;;;5.44;100.00
10946;BME280;5525;42.648;23.368;2024-02-21T02:15:40;95274.00;;;5.56;100.00
10946;BME280;5525;42.648;23.368;2024-02-21T02:18:07;95283.63;;;5.57;100.00
10946;BME280;5525;42.648;23.368;2024-02-21T02:20:35;95276.69;;;5.51;100.00
10946;BME280;5525;42.648;23.368;2024-02-21T02:23:07;95276.69;;;5.51;100.00
10946;BME280;5525;42.648;23.368;2024-02-21T02:25:35;95284.75;;;5.51;100.00
10946;BME280;5525;42.648;23.368;2024-02-21T02:28:03;95276.44;;;5.48;100.00
10946;BME280;5525;42.648;23.368;2024-02-21T02:30:32;95268.41;;;5.48;100.00
10946;BME280;5525;42.648;23.368;2024-02-21T02:32:59;95274.31;;;5.45;100.00
10946;BME280;5525;42.648;23.368;2024-02-21T02:35:26;95270.88;;;5.44;100.00
10946;BME280;5525;42.648;23.368;2024-02-21T02:37:52;95265.28;;;5.31;100.00
10946;BME280;5525;42.648;23.368;2024-02-21T02:40:19;95262.94;;;5.24;100.00
10946;BME280;5525;42.648;23.368;2024-02-21T02:42:48;95263.41;;;5.36;100.00
10946;BME280;5525;42.648;23.368;2024-02-21T02:45:15;95261.84;;;5.25;100.00
10946;BME280;5525;42.648;23.368;2024-02-21T02:47:42;95260.72;;;5.41;100.00
10946;BME280;5525;42.648;23.368;2024-02-21T02:50:09;95263.09;;;5.43;100.00
10946;BME280;5525;42.648;23.368;2024-02-21T02:52:36;95264.91;;;5.52;100.00
10946;BME280;5525;42.648;23.368;2024-02-21T02:55:04;95269.97;;;5.54;100.00
10946;BME280;5525;42.648;23.368;2024-02-21T02:57:31;95272.72;;;5.49;100.00
10946;BME280;5525;42.648;23.368;2024-02-21T02:59:59;95269.41;;;5.62;100.00
10946;BME280;5525;42.648;23.368;2024-02-21T03:02:26;95272.03;;;5.72;100.00
10946;BME280;5525;42.648;23.368;2024-02-21T03:04:52;95270.91;;;5.78;100.00
10946;BME280;5525;42.648;23.368;2024-02-21T03:07:19;95271.59;;;5.55;100.00
10946;BME280;5525;42.648;23.368;2024-02-21T03:09:46;95266.72;;;5.62;100.00
10946;BME280;5525;42.648;23.368;2024-02-21T03:12:13;95273.34;;;5.74;100.00
10946;BME280;5525;42.648;23.368;2024-02-21T03:14:44;95277.56;;;5.80;100.00
10946;BME280;5525;42.648;23.368;2024-02-21T03:17:12;95281.41;;;5.69;100.00
10946;BME280;5525;42.648;23.368;2024-02-21T03:19:39;95277.88;;;5.74;100.00
10946;BME280;5525;42.648;23.368;2024-02-21T03:22:06;95282.94;;;5.80;100.00
10946;BME280;5525;42.648;23.368;2024-02-21T03:24:33;95292.56;;;5.86;100.00
10946;BME280;5525;42.648;23.368;2024-02-21T03:26:59;95286.16;;;5.87;100.00
10946;BME280;5525;42.648;23.368;2024-02-21T03:29:26;95280.25;;;5.80;100.00
10946;BME280;5525;42.648;23.368;2024-02-21T03:31:53;95280.06;;;5.72;100.00
10946;BME280;5525;42.648;23.368;2024-02-21T03:34:21;95296.69;;;5.69;100.00
10946;BME280;5525;42.648;23.368;2024-02-21T03:36:48;95288.44;;;5.60;100.00
10946;BME280;5525;42.648;23.368;2024-02-21T03:39:14;95297.00;;;5.62;100.00
10946;BME280;5525;42.648;23.368;2024-02-21T03:41:41;95288.72;;;5.54;100.00
10946;BME280;5525;42.648;23.368;2024-02-21T03:44:08;95297.00;;;5.57;100.00
10946;BME280;5525;42.648;23.368;2024-02-21T03:46:35;95295.66;;;5.60;100.00
10946;BME280;5525;42.648;23.368;2024-02-21T03:49:02;95295.72;;;5.55;100.00
10946;BME280;5525;42.648;23.368;2024-02-21T03:51:34;95296.88;;;5.77;100.00
10946;BME280;5525;42.648;23.368;2024-02-21T03:54:00;95298.00;;;5.71;100.00
10946;BME280;5525;42.648;23.368;2024-02-21T03:56:27;95296.63;;;5.74;100.00
10946;BME280;5525;42.648;23.368;2024-02-21T03:58:54;95291.53;;;5.82;100.00
10946;BME280;5525;42.648;23.368;2024-02-21T04:01:21;95304.38;;;5.85;100.00
10946;BME280;5525;42.648;23.368;2024-02-21T04:03:47;95295.00;;;5.83;100.00
10946;BME280;5525;42.648;23.368;2024-02-21T04:06:14;95291.53;;;5.77;100.00
10946;BME280;5525;42.648;23.368;2024-02-21T04:08:45;95297.75;;;5.68;100.00
10946;BME280;5525;42.648;23.368;2024-02-21T04:11:12;95294.03;;;5.64;100.00
10946;BME280;5525;42.648;23.368;2024-02-21T04:13:39;95292.44;;;5.63;100.00
10946;BME280;5525;42.648;23.368;2024-02-21T04:16:06;95298.41;;;5.50;100.00
10946;BME280;5525;42.648;23.368;2024-02-21T04:18:33;95295.25;;;5.43;100.00
10946;BME280;5525;42.648;23.368;2024-02-21T04:20:59;95299.06;;;5.27;100.00
10946;BME280;5525;42.648;23.368;2024-02-21T04:23:26;95282.75;;;5.23;100.00
10946;BME280;5525;42.648;23.368;2024-02-21T04:25:54;95288.91;;;5.18;100.00
10946;BME280;5525;42.648;23.368;2024-02-21T04:28:21;95300.19;;;5.15;100.00
10946;BME280;5525;42.648;23.368;2024-02-21T04:30:48;95304.16;;;5.23;100.00
10946;BME280;5525;42.648;23.368;2024-02-21T04:33:15;95306.63;;;5.09;100.00
10946;BME280;5525;42.648;23.368;2024-02-21T04:35:41;95293.75;;;5.16;100.00
10946;BME280;5525;42.648;23.368;2024-02-21T04:38:08;95302.56;;;5.17;100.00
10946;BME280;5525;42.648;23.368;2024-02-21T04:40:35;95294.06;;;5.05;100.00
10946;BME280;5525;42.648;23.368;2024-02-21T04:43:03;95294.88;;;5.05;100.00
10946;BME280;5525;42.648;23.368;2024-02-21T04:45:30;95293.84;;;4.91;100.00
10946;BME280;5525;42.648;23.368;2024-02-21T04:47:57;95301.91;;;4.81;100.00
10946;BME280;5525;42.648;23.368;2024-02-21T04:50:23;95294.94;;;4.90;100.00
10946;BME280;5525;42.648;23.368;2024-02-21T04:52:50;95296.53;;;4.86;100.00
10946;BME280;5525;42.648;23.368;2024-02-21T04:55:17;95299.53;;;4.75;100.00
10946;BME280;5525;42.648;23.368;2024-02-21T04:57:43;95303.53;;;4.77;100.00
10946;BME280;5525;42.648;23.368;2024-02-21T05:00:13;95300.84;;;4.77;100.00
10946;BME280;5525;42.648;23.368;2024-02-21T05:02:40;95298.75;;;4.59;100.00
10946;BME280;5525;42.648;23.368;2024-02-21T05:05:07;95301.66;;;4.73;100.00
10946;BME280;5525;42.648;23.368;2024-02-21T05:07:35;95298.47;;;4.66;100.00
10946;BME280;5525;42.648;23.368;2024-02-21T05:10:01;95298.75;;;4.59;100.00
10946;BME280;5525;42.648;23.368;2024-02-21T05:12:28;95305.72;;;4.60;100.00
10946;BME280;5525;42.648;23.368;2024-02-21T05:14:56;95307.28;;;4.71;100.00
10946;BME280;5525;42.648;23.368;2024-02-21T05:17:24;95311.59;;;4.62;100.00
10946;BME280;5525;42.648;23.368;2024-02-21T05:19:51;95311.31;;;4.59;100.00
10946;BME280;5525;42.648;23.368;2024-02-21T05:22:18;95314.78;;;4.64;100.00
10946;BME280;5525;42.648;23.368;2024-02-21T05:24:44;95318.75;;;4.82;100.00
10946;BME280;5525;42.648;23.368;2024-02-21T05:27:11;95312.03;;;4.94;100.00
10946;BME280;5525;42.648;23.368;2024-02-21T05:29:38;95320.34;;;4.98;100.00
10946;BME280;5525;42.648;23.368;2024-02-21T05:32:05;95311.22;;;5.04;100.00
10946;BME280;5525;42.648;23.368;2024-02-21T05:34:33;95317.59;;;5.13;100.00
10946;BME280;5525;42.648;23.368;2024-02-21T05:37:00;95315.66;;;5.23;100.00
10946;BME280;5525;42.648;23.368;2024-02-21T05:39:27;95321.97;;;5.53;100.00
10946;BME280;5525;42.648;23.368;2024-02-21T05:41:54;95318.34;;;5.72;100.00
10946;BME280;5525;42.648;23.368;2024-02-21T05:44:21;95323.38;;;5.89;100.00
10946;BME280;5525;42.648;23.368;2024-02-21T05:46:48;95316.03;;;6.04;100.00
10946;BME280;5525;42.648;23.368;2024-02-21T05:49:15;95310.84;;;6.18;100.00
10946;BME280;5525;42.648;23.368;2024-02-21T05:51:43;95326.94;;;6.18;100.00
10946;BME280;5525;42.648;23.368;2024-02-21T05:54:10;95319.34;;;5.91;100.00
10946;BME280;5525;42.648;23.368;2024-02-21T05:56:37;95330.03;;;6.30;100.00
10946;BME280;5525;42.648;23.368;2024-02-21T05:59:04;95323.75;;;6.44;100.00
10946;BME280;5525;42.648;23.368;2024-02-21T06:01:30;95321.53;;;6.51;100.00
10946;BME280;5525;42.648;23.368;2024-02-21T06:03:57;95316.91;;;6.57;100.00
10946;BME280;5525;42.648;23.368;2024-02-21T06:06:24;95327.97;;;6.50;100.00
10946;BME280;5525;42.648;23.368;2024-02-21T06:08:52;95329.31;;;6.53;100.00
10946;BME280;5525;42.648;23.368;2024-02-21T06:11:19;95329.09;;;6.44;100.00
10946;BME280;5525;42.648;23.368;2024-02-21T06:13:46;95330.59;;;6.60;100.00
10946;BME280;5525;42.648;23.368;2024-02-21T06:16:12;95342.53;;;6.73;100.00
10946;BME280;5525;42.648;23.368;2024-02-21T06:18:39;95332.88;;;6.72;100.00
10946;BME280;5525;42.648;23.368;2024-02-21T06:21:06;95341.28;;;6.65;100.00
10946;BME280;5525;42.648;23.368;2024-02-21T06:23:33;95342.63;;;6.63;100.00
10946;BME280;5525;42.648;23.368;2024-02-21T06:26:01;95343.84;;;6.47;100.00
10946;BME280;5525;42.648;23.368;2024-02-21T06:28:28;95349.69;;;6.54;100.00
10946;BME280;5525;42.648;23.368;2024-02-21T06:30:55;95346.41;;;6.62;100.00
10946;BME280;5525;42.648;23.368;2024-02-21T06:33:22;95354.44;;;6.90;100.00
10946;BME280;5525;42.648;23.368;2024-02-21T06:35:50;95354.13;;;7.63;100.00
10946;BME280;5525;42.648;23.368;2024-02-21T06:38:18;95354.34;;;8.08;100.00
10946;BME280;5525;42.648;23.368;2024-02-21T06:40:46;95354.94;;;8.42;100.00
10946;BME280;5525;42.648;23.368;2024-02-21T06:43:18;95345.13;;;8.33;100.00
10946;BME280;5525;42.648;23.368;2024-02-21T06:45:45;95356.22;;;8.45;100.00
10946;BME280;5525;42.648;23.368;2024-02-21T06:48:17;95357.41;;;8.39;100.00
10946;BME280;5525;42.648;23.368;2024-02-21T06:50:44;95360.31;;;8.42;100.00
10946;BME280;5525;42.648;23.368;2024-02-21T06:53:11;95367.72;;;8.32;100.00
10946;BME280;5525;42.648;23.368;2024-02-21T06:55:38;95355.00;;;8.37;100.00
10946;BME280;5525;42.648;23.368;2024-02-21T06:58:05;95368.84;;;8.63;100.00
10946;BME280;5525;42.648;23.368;2024-02-21T07:00:35;95370.34;;;8.69;100.00
10946;BME280;5525;42.648;23.368;2024-02-21T07:03:02;95368.41;;;8.75;100.00
10946;BME280;5525;42.648;23.368;2024-02-21T07:05:29;95364.59;;;8.43;100.00
10946;BME280;5525;42.648;23.368;2024-02-21T07:07:56;95365.78;;;8.70;100.00
10946;BME280;5525;42.648;23.368;2024-02-21T07:10:22;95360.75;;;9.09;100.00
10946;BME280;5525;42.648;23.368;2024-02-21T07:12:49;95366.53;;;8.89;100.00
10946;BME280;5525;42.648;23.368;2024-02-21T07:15:17;95361.81;;;8.48;100.00
10946;BME280;5525;42.648;23.368;2024-02-21T07:17:45;95363.72;;;8.80;100.00
10946;BME280;5525;42.648;23.368;2024-02-21T07:20:12;95365.78;;;8.70;100.00
10946;BME280;5525;42.648;23.368;2024-02-21T07:22:39;95364.53;;;8.48;100.00
10946;BME280;5525;42.648;23.368;2024-02-21T07:25:06;95368.69;;;8.41;100.00
10946;BME280;5525;42.648;23.368;2024-02-21T07:27:33;95363.19;;;8.46;100.00
10946;BME280;5525;42.648;23.368;2024-02-21T07:30:00;95376.91;;;7.89;100.00
10946;BME280;5525;42.648;23.368;2024-02-21T07:32:27;95367.13;;;7.98;100.00
10946;BME280;5525;42.648;23.368;2024-02-21T07:34:55;95374.38;;;7.97;100.00
10946;BME280;5525;42.648;23.368;2024-02-21T07:37:22;95377.59;;;7.99;100.00
10946;BME280;5525;42.648;23.368;2024-02-21T07:39:48;95375.28;;;7.69;100.00
10946;BME280;5525;42.648;23.368;2024-02-21T07:42:15;95373.78;;;7.82;100.00
10946;BME280;5525;42.648;23.368;2024-02-21T07:44:42;95368.06;;;8.07;100.00
10946;BME280;5525;42.648;23.368;2024-02-21T07:47:09;95375.97;;;7.98;100.00
10946;BME280;5525;42.648;23.368;2024-02-21T07:49:41;95369.97;;;8.06;100.00
10946;BME280;5525;42.648;23.368;2024-02-21T07:52:09;95366.38;;;7.92;100.00
10946;BME280;5525;42.648;23.368;2024-02-21T07:54:36;95366.41;;;8.11;100.00
10946;BME280;5525;42.648;23.368;2024-02-21T07:57:03;95369.81;;;8.35;100.00
10946;BME280;5525;42.648;23.368;2024-02-21T07:59:32;95363.63;;;8.53;100.00
10946;BME280;5525;42.648;23.368;2024-02-21T08:01:59;95360.44;;;8.51;100.00
10946;BME280;5525;42.648;23.368;2024-02-21T08:04:26;95365.53;;;8.52;100.00
10946;BME280;5525;42.648;23.368;2024-02-21T08:06:53;95367.78;;;8.64;100.00
10946;BME280;5525;42.648;23.368;2024-02-21T08:09:22;95358.75;;;8.87;100.00
10946;BME280;5525;42.648;23.368;2024-02-21T08:11:49;95361.84;;;8.30;100.00
10946;BME280;5525;42.648;23.368;2024-02-21T08:14:17;95359.63;;;8.32;100.00
10946;BME280;5525;42.648;23.368;2024-02-21T08:16:43;95367.84;;;8.59;100.00
10946;BME280;5525;42.648;23.368;2024-02-21T08:19:11;95371.88;;;8.75;100.00
10946;BME280;5525;42.648;23.368;2024-02-21T08:21:37;95370.25;;;8.61;100.00
10946;BME280;5525;42.648;23.368;2024-02-21T08:24:04;95363.41;;;8.82;100.00
10946;BME280;5525;42.648;23.368;2024-02-21T08:26:33;95366.44;;;9.07;100.00
10946;BME280;5525;42.648;23.368;2024-02-21T08:29:03;95360.28;;;9.20;100.00
10946;BME280;5525;42.648;23.368;2024-02-21T08:31:30;95359.91;;;8.81;100.00
10946;BME280;5525;42.648;23.368;2024-02-21T08:33:57;95362.78;;;9.30;100.00
10946;BME280;5525;42.648;23.368;2024-02-21T08:36:28;95354.91;;;9.74;100.00
10946;BME280;5525;42.648;23.368;2024-02-21T08:38:55;95361.66;;;9.99;100.00
10946;BME280;5525;42.648;23.368;2024-02-21T08:41:23;95360.31;;;9.74;100.00
10946;BME280;5525;42.648;23.368;2024-02-21T08:43:52;95358.78;;;9.82;100.00
10946;BME280;5525;42.648;23.368;2024-02-21T08:46:19;95348.97;;;10.13;100.00
10946;BME280;5525;42.648;23.368;2024-02-21T08:48:46;95360.06;;;10.69;100.00
10946;BME280;5525;42.648;23.368;2024-02-21T08:51:13;95344.38;;;11.02;100.00
10946;BME280;5525;42.648;23.368;2024-02-21T08:53:40;95351.44;;;10.89;100.00
10946;BME280;5525;42.648;23.368;2024-02-21T08:56:07;95349.59;;;10.98;100.00
10946;BME280;5525;42.648;23.368;2024-02-21T08:58:35;95354.53;;;10.74;100.00
10946;BME280;5525;42.648;23.368;2024-02-21T09:01:04;95352.22;;;11.12;100.00
10946;BME280;5525;42.648;23.368;2024-02-21T09:03:32;95350.59;;;11.41;100.00
10946;BME280;5525;42.648;23.368;2024-02-21T09:05:59;95348.13;;;10.92;100.00
10946;BME280;5525;42.648;23.368;2024-02-21T09:08:26;95348.25;;;10.87;100.00
10946;BME280;5525;42.648;23.368;2024-02-21T09:10:53;95349.97;;;10.61;100.00
10946;BME280;5525;42.648;23.368;2024-02-21T09:13:20;95352.75;;;10.48;100.00
10946;BME280;5525;42.648;23.368;2024-02-21T09:15:47;95353.63;;;10.79;100.00
10946;BME280;5525;42.648;23.368;2024-02-21T09:18:15;95355.69;;;10.82;100.00
10946;BME280;5525;42.648;23.368;2024-02-21T09:20:43;95343.81;;;10.61;100.00
10946;BME280;5525;42.648;23.368;2024-02-21T09:23:10;95348.09;;;10.84;100.00
10946;BME280;5525;42.648;23.368;2024-02-21T09:25:36;95352.88;;;11.17;100.00
10946;BME280;5525;42.648;23.368;2024-02-21T09:28:04;95347.25;;;11.36;100.00
10946;BME280;5525;42.648;23.368;2024-02-21T09:30:31;95347.78;;;11.16;100.00
10946;BME280;5525;42.648;23.368;2024-02-21T09:32:58;95350.66;;;11.50;100.00
10946;BME280;5525;42.648;23.368;2024-02-21T09:35:28;95346.53;;;11.61;100.00
10946;BME280;5525;42.648;23.368;2024-02-21T09:37:55;95352.78;;;11.31;100.00
10946;BME280;5525;42.648;23.368;2024-02-21T09:40:21;95354.03;;;10.72;100.00
10946;BME280;5525;42.648;23.368;2024-02-21T09:42:57;95361.34;;;10.72;100.00
10946;BME280;5525;42.648;23.368;2024-02-21T09:45:26;95354.47;;;10.44;100.00
10946;BME280;5525;42.648;23.368;2024-02-21T09:48:05;95352.38;;;11.15;100.00
10946;BME280;5525;42.648;23.368;2024-02-21T09:50:40;95350.84;;;11.62;100.00
10946;BME280;5525;42.648;23.368;2024-02-21T09:53:09;95342.06;;;11.96;100.00
10946;BME280;5525;42.648;23.368;2024-02-21T09:55:39;95357.50;;;11.95;100.00
10946;BME280;5525;42.648;23.368;2024-02-21T09:58:07;95349.13;;;12.48;100.00
10946;BME280;5525;42.648;23.368;2024-02-21T10:00:35;95347.47;;;12.81;100.00
10946;BME280;5525;42.648;23.368;2024-02-21T10:03:02;95341.88;;;13.20;100.00
10946;BME280;5525;42.648;23.368;2024-02-21T10:05:33;95339.84;;;12.06;100.00
10946;BME280;5525;42.648;23.368;2024-02-21T10:08:02;95345.72;;;12.00;100.00
10946;BME280;5525;42.648;23.368;2024-02-21T10:10:29;95337.00;;;12.20;100.00
10946;BME280;5525;42.648;23.368;2024-02-21T10:12:56;95341.31;;;12.29;99.33
10946;BME280;5525;42.648;23.368;2024-02-21T10:15:24;95333.16;;;12.12;99.46
10946;BME280;5525;42.648;23.368;2024-02-21T10:17:58;95333.94;;;12.04;99.18
10946;BME280;5525;42.648;23.368;2024-02-21T10:20:26;95340.16;;;11.18;100.00
10946;BME280;5525;42.648;23.368;2024-02-21T10:23:02;95328.31;;;11.66;100.00
10946;BME280;5525;42.648;23.368;2024-02-21T10:25:33;95331.00;;;11.66;100.00
10946;BME280;5525;42.648;23.368;2024-02-21T10:28:01;95331.88;;;11.53;100.00
10946;BME280;5525;42.648;23.368;2024-02-21T10:30:28;95318.53;;;11.18;100.00
10946;BME280;5525;42.648;23.368;2024-02-21T10:32:55;95317.13;;;11.20;100.00
10946;BME280;5525;42.648;23.368;2024-02-21T10:35:26;95311.03;;;11.15;100.00
10946;BME280;5525;42.648;23.368;2024-02-21T10:37:54;95308.03;;;11.55;100.00
10946;BME280;5525;42.648;23.368;2024-02-21T10:40:23;95303.06;;;12.14;100.00
10946;BME280;5525;42.648;23.368;2024-02-21T10:42:56;95295.25;;;12.29;93.50
10946;BME280;5525;42.648;23.368;2024-02-21T10:45:29;95290.16;;;13.63;86.78
10946;BME280;5525;42.648;23.368;2024-02-21T10:48:01;95280.84;;;15.07;77.02
10946;BME280;5525;42.648;23.368;2024-02-21T10:50:36;95283.22;;;15.09;73.71
10946;BME280;5525;42.648;23.368;2024-02-21T10:53:12;95278.97;;;14.87;72.92
10946;BME280;5525;42.648;23.368;2024-02-21T10:55:57;95281.88;;;14.09;76.85
10946;BME280;5525;42.648;23.368;2024-02-21T10:58:25;95267.41;;;13.96;77.50
10946;BME280;5525;42.648;23.368;2024-02-21T11:00:54;95263.81;;;14.54;71.17
10946;BME280;5525;42.648;23.368;2024-02-21T11:03:22;95264.03;;;14.61;71.41
10946;BME280;5525;42.648;23.368;2024-02-21T11:05:49;95264.06;;;15.05;67.87
10946;BME280;5525;42.648;23.368;2024-02-21T11:08:17;95251.81;;;16.20;61.28
10946;BME280;5525;42.648;23.368;2024-02-21T11:10:48;95254.47;;;16.99;57.79
10946;BME280;5525;42.648;23.368;2024-02-21T11:13:14;95248.72;;;16.33;57.05
10946;BME280;5525;42.648;23.368;2024-02-21T11:15:41;95247.91;;;18.85;52.57
10946;BME280;5525;42.648;23.368;2024-02-21T11:18:08;95249.75;;;22.29;43.78
10946;BME280;5525;42.648;23.368;2024-02-21T11:20:36;95252.59;;;22.43;37.96
10946;BME280;5525;42.648;23.368;2024-02-21T11:23:03;95249.94;;;22.61;37.16
10946;BME280;5525;42.648;23.368;2024-02-21T11:25:30;95253.13;;;22.09;36.68
10946;BME280;5525;42.648;23.368;2024-02-21T11:28:07;95250.38;;;19.32;40.73
10946;BME280;5525;42.648;23.368;2024-02-21T11:30:36;95253.13;;;15.98;46.93
10946;BME280;5525;42.648;23.368;2024-02-21T11:33:05;95259.19;;;14.54;51.74
10946;BME280;5525;42.648;23.368;2024-02-21T11:35:32;95247.75;;;14.28;53.91
10946;BME280;5525;42.648;23.368;2024-02-21T11:38:10;95242.22;;;13.96;54.89
10946;BME280;5525;42.648;23.368;2024-02-21T11:40:40;95232.91;;;13.55;60.53
10946;BME280;5525;42.648;23.368;2024-02-21T11:43:08;95242.53;;;13.44;61.61
10946;BME280;5525;42.648;23.368;2024-02-21T11:45:35;95245.16;;;13.32;61.91
10946;BME280;5525;42.648;23.368;2024-02-21T11:48:02;95237.75;;;13.04;65.25
10946;BME280;5525;42.648;23.368;2024-02-21T11:50:30;95233.88;;;12.76;67.12
10946;BME280;5525;42.648;23.368;2024-02-21T11:52:58;95223.59;;;12.35;69.91
10946;BME280;5525;42.648;23.368;2024-02-21T11:55:24;95226.16;;;11.98;72.86
10946;BME280;5525;42.648;23.368;2024-02-21T11:57:51;95223.59;;;11.75;75.97
10946;BME280;5525;42.648;23.368;2024-02-21T12:00:20;95219.63;;;11.90;77.12
10946;BME280;5525;42.648;23.368;2024-02-21T12:02:50;95220.50;;;11.43;75.59
10946;BME280;5525;42.648;23.368;2024-02-21T12:05:18;95218.31;;;11.06;78.32
10946;BME280;5525;42.648;23.368;2024-02-21T12:07:46;95217.88;;;11.04;79.72
10946;BME280;5525;42.648;23.368;2024-02-21T12:10:13;95217.56;;;11.14;79.13
10946;BME280;5525;42.648;23.368;2024-02-21T12:12:40;95218.31;;;11.06;80.45
10946;BME280;5525;42.648;23.368;2024-02-21T12:15:08;95209.50;;;10.75;83.27
10946;BME280;5525;42.648;23.368;2024-02-21T12:17:39;95210.19;;;10.58;86.04
10946;BME280;5525;42.648;23.368;2024-02-21T12:20:07;95216.31;;;10.50;88.41
10946;BME280;5525;42.648;23.368;2024-02-21T12:22:36;95210.03;;;10.55;86.39
10946;BME280;5525;42.648;23.368;2024-02-21T12:25:04;95205.53;;;10.50;89.63
10946;BME280;5525;42.648;23.368;2024-02-21T12:27:33;95207.22;;;10.38;90.25
10946;BME280;5525;42.648;23.368;2024-02-21T12:30:00;95209.56;;;10.31;92.90
10946;BME280;5525;42.648;23.368;2024-02-21T12:32:26;95204.44;;;10.51;93.32
10946;BME280;5525;42.648;23.368;2024-02-21T12:34:54;95204.53;;;10.38;96.19
10946;BME280;5525;42.648;23.368;2024-02-21T12:37:22;95198.53;;;10.18;99.75
10946;BME280;5525;42.648;23.368;2024-02-21T12:39:49;95197.69;;;10.09;100.00
10946;BME280;5525;42.648;23.368;2024-02-21T12:42:15;95193.63;;;10.20;100.00
10946;BME280;5525;42.648;23.368;2024-02-21T12:44:42;95193.91;;;9.97;99.74
10946;BME280;5525;42.648;23.368;2024-02-21T12:47:09;95199.25;;;10.10;100.00
10946;BME280;5525;42.648;23.368;2024-02-21T12:49:36;95191.84;;;10.16;100.00
10946;BME280;5525;42.648;23.368;2024-02-21T12:52:05;95194.41;;;10.21;100.00
10946;BME280;5525;42.648;23.368;2024-02-21T12:54:32;95193.09;;;9.96;100.00
10946;BME280;5525;42.648;23.368;2024-02-21T12:56:59;95194.88;;;10.01;100.00
10946;BME280;5525;42.648;23.368;2024-02-21T12:59:28;95186.97;;;10.04;99.27